• Join FlightAware (Why Join?)
  • Login
  • US Flag 
06:59PM EDT


 

Airport Tracker/Info


-or-


 

Live Flight TrackerFlight Track Log ✈ TAM9377 ✈ 04-Jan-2014 ✈ SBGR / GRU - KJFK

Flight Track Log - Related Links

Times and Time Zones

All times are in EST time to prevent confusion due to time zone crossing. See the TAM9377 flight status page for this flight to view local times or setup timezone preferences in your user account.

Time Position Orientation Groundspeed Altitude Reporting Facility
EST Latitude Longitude Course Direction KTS MPH feet Rate Location/Type
04:26AM -23.1568 -46.4564 345° North  Level Estimated
04:27AM -23.0350 -46.5098 342° North  Level Estimated
04:28AM -22.9163 -46.5707 335° Northwest  Level FlightAware Approximate
04:29AM -22.7976 -46.6316 335° Northwest  Level FlightAware Approximate
04:30AM -22.6757 -46.6847 343° North  Level Estimated
04:31AM -22.5539 -46.7377 338° Northwest  Level FlightAware Approximate
04:32AM -22.4320 -46.7905 342° North  Level Estimated
04:33AM -22.3081 -46.8377 341° North  Level FlightAware Approximate
04:34AM -22.1862 -46.8903 343° North  Level Estimated
04:35AM -22.0642 -46.9429 341° North  Level Estimated
04:36AM -21.9422 -46.9954 343° North  Level Estimated
04:37AM -21.8145 -47.0283 347° North  Level FlightAware Approximate
04:38AM -21.6925 -47.0806 344° North  Level Estimated
04:39AM -21.5657 -47.1170 345° North  Level FlightAware Approximate
04:40AM -21.4387 -47.1533 345° North  Level FlightAware Approximate
04:41AM -21.3167 -47.2054 343° North  Level Estimated
04:42AM -21.1913 -47.2472 343° North  Level FlightAware Approximate
04:43AM -21.0659 -47.2890 343° North  Level FlightAware Approximate
04:44AM -20.9405 -47.3306 343° North  Level FlightAware Approximate
04:45AM -20.8150 -47.3722 343° North  Level FlightAware Approximate
04:46AM -20.6896 -47.4137 343° North  Level FlightAware Approximate
04:47AM -20.5641 -47.4551 343° North  Level FlightAware Approximate
04:48AM -20.4387 -47.4965 343° North  Level FlightAware Approximate
04:49AM -20.3132 -47.5378 343° North  Level FlightAware Approximate
04:50AM -20.1877 -47.5790 343° North  Level FlightAware Approximate
04:51AM -20.0622 -47.6202 343° North  Level FlightAware Approximate
04:52AM -19.9367 -47.6613 343° North  Level FlightAware Approximate
04:53AM -19.8112 -47.7024 343° North  Level FlightAware Approximate
04:54AM -19.6856 -47.7434 343° North  Level FlightAware Approximate
04:55AM -19.5601 -47.7843 343° North  Level FlightAware Approximate
04:56AM -19.4346 -47.8251 343° North  Level FlightAware Approximate
04:57AM -19.3090 -47.8659 343° North  Level FlightAware Approximate
04:58AM -19.1835 -47.9066 343° North  Level FlightAware Approximate
04:59AM -19.0579 -47.9473 343° North  Level FlightAware Approximate
05:00AM -18.9323 -47.9879 343° North  Level FlightAware Approximate
05:01AM -18.8067 -48.0284 343° North  Level FlightAware Approximate
05:02AM -18.6811 -48.0689 343° North  Level FlightAware Approximate
05:03AM -18.5555 -48.1093 343° North  Level FlightAware Approximate
05:04AM -18.4299 -48.1497 343° North  Level FlightAware Approximate
05:05AM -18.3043 -48.1900 343° North  Level FlightAware Approximate
05:06AM -18.1786 -48.2302 343° North  Level FlightAware Approximate
05:07AM -18.0530 -48.2704 343° North  Level FlightAware Approximate
05:08AM -17.9273 -48.3105 343° North  Level FlightAware Approximate
05:09AM -17.8017 -48.3506 343° North  Level FlightAware Approximate
05:10AM -17.6760 -48.3906 343° North  Level FlightAware Approximate
05:11AM -17.5504 -48.4306 343° North  Level FlightAware Approximate
05:12AM -17.4247 -48.4705 343° North  Level FlightAware Approximate
05:13AM -17.2990 -48.5103 343° North  Level FlightAware Approximate
05:14AM -17.1733 -48.5501 343° North  Level FlightAware Approximate
05:15AM -17.0476 -48.5899 343° North  Level FlightAware Approximate
05:16AM -16.9219 -48.6295 343° North  Level FlightAware Approximate
05:17AM -16.7962 -48.6692 343° North  Level FlightAware Approximate
05:18AM -16.6704 -48.7088 343° North  Level FlightAware Approximate
05:19AM -16.5447 -48.7483 343° North  Level FlightAware Approximate
05:20AM -16.4189 -48.7878 343° North  Level FlightAware Approximate
05:21AM -16.2932 -48.8272 343° North  Level FlightAware Approximate
05:22AM -16.1674 -48.8666 343° North  Level FlightAware Approximate
05:23AM -16.0417 -48.9059 343° North  Level FlightAware Approximate
05:24AM -15.9159 -48.9452 343° North  Level FlightAware Approximate
05:25AM -15.7901 -48.9844 343° North  Level FlightAware Approximate
05:26AM -15.6643 -49.0236 343° North  Level FlightAware Approximate
05:27AM -15.5386 -49.0627 343° North  Level FlightAware Approximate
05:28AM -15.4128 -49.1018 343° North  Level FlightAware Approximate
05:29AM -15.2869 -49.1408 343° North  Level FlightAware Approximate
05:30AM -15.1611 -49.1798 343° North  Level FlightAware Approximate
05:31AM -15.0353 -49.2187 343° North  Level FlightAware Approximate
05:32AM -14.9095 -49.2576 343° North  Level FlightAware Approximate
05:33AM -14.7837 -49.2965 343° North  Level FlightAware Approximate
05:34AM -14.6578 -49.3353 343° North  Level FlightAware Approximate
05:35AM -14.5320 -49.3740 343° North  Level FlightAware Approximate
05:36AM -14.4061 -49.4128 343° North  Level FlightAware Approximate
05:37AM -14.2802 -49.4514 343° North  Level FlightAware Approximate
05:38AM -14.1544 -49.4901 343° North  Level FlightAware Approximate
05:39AM -14.0285 -49.5286 343° North  Level FlightAware Approximate
05:40AM -13.9026 -49.5672 343° North  Level FlightAware Approximate
05:41AM -13.7768 -49.6057 343° North  Level FlightAware Approximate
05:42AM -13.6509 -49.6441 343° North  Level FlightAware Approximate
05:43AM -13.5250 -49.6826 343° North  Level FlightAware Approximate
05:44AM -13.3991 -49.7210 343° North  Level FlightAware Approximate
05:45AM -13.2732 -49.7593 343° North  Level FlightAware Approximate
05:46AM -13.1473 -49.7976 344° North  Level FlightAware Approximate
05:47AM -13.0213 -49.8358 344° North  Level FlightAware Approximate
05:48AM -12.8954 -49.8741 344° North  Level FlightAware Approximate
05:49AM -12.7695 -49.9123 344° North  Level FlightAware Approximate
05:50AM -12.6436 -49.9504 344° North  Level FlightAware Approximate
05:51AM -12.5176 -49.9885 344° North  Level FlightAware Approximate
05:52AM -12.3917 -50.0266 344° North  Level FlightAware Approximate
05:53AM -12.2657 -50.0646 344° North  Level FlightAware Approximate
05:54AM -12.1398 -50.1026 344° North  Level FlightAware Approximate
05:55AM -12.0138 -50.1406 344° North  Level FlightAware Approximate
05:56AM -11.8878 -50.1785 344° North  Level FlightAware Approximate
05:57AM -11.7619 -50.2164 344° North  Level FlightAware Approximate
05:58AM -11.6359 -50.2542 344° North  Level FlightAware Approximate
05:59AM -11.5135 -50.3028 326° Northwest  Level Estimated
06:00AM -11.4033 -50.3758 327° Northwest  Level FlightAware Approximate
06:01AM -11.2932 -50.4487 327° Northwest  Level FlightAware Approximate
06:02AM -11.1830 -50.5215 327° Northwest  Level FlightAware Approximate
06:03AM -11.0728 -50.5943 327° Northwest  Level FlightAware Approximate
06:04AM -10.9626 -50.6670 327° Northwest  Level FlightAware Approximate
06:05AM -10.8523 -50.7397 327° Northwest  Level FlightAware Approximate
06:06AM -10.7421 -50.8123 327° Northwest  Level FlightAware Approximate
06:07AM -10.6318 -50.8848 327° Northwest  Level FlightAware Approximate
06:08AM -10.5215 -50.9574 327° Northwest  Level FlightAware Approximate
06:09AM -10.4112 -51.0298 327° Northwest  Level FlightAware Approximate
06:10AM -10.3009 -51.1022 327° Northwest  Level FlightAware Approximate
06:11AM -10.1905 -51.1746 327° Northwest  Level FlightAware Approximate
06:12AM -10.0802 -51.2469 327° Northwest  Level FlightAware Approximate
06:13AM -9.9698 -51.3191 327° Northwest  Level FlightAware Approximate
06:14AM -9.8594 -51.3913 327° Northwest  Level FlightAware Approximate
06:15AM -9.7490 -51.4635 327° Northwest  Level FlightAware Approximate
06:16AM -9.6386 -51.5356 327° Northwest  Level FlightAware Approximate
06:17AM -9.5282 -51.6077 327° Northwest  Level FlightAware Approximate
06:18AM -9.4177 -51.6797 327° Northwest  Level FlightAware Approximate
06:19AM -9.3073 -51.7516 327° Northwest  Level FlightAware Approximate
06:20AM -9.1968 -51.8236 327° Northwest  Level FlightAware Approximate
06:21AM -9.0863 -51.8954 327° Northwest  Level FlightAware Approximate
06:22AM -8.9758 -51.9673 327° Northwest  Level FlightAware Approximate
06:23AM -8.8653 -52.0391 327° Northwest  Level FlightAware Approximate
06:24AM -8.7548 -52.1108 327° Northwest  Level FlightAware Approximate
06:25AM -8.6442 -52.1825 327° Northwest  Level FlightAware Approximate
06:26AM -8.5337 -52.2542 327° Northwest  Level FlightAware Approximate
06:27AM -8.4231 -52.3258 327° Northwest  Level FlightAware Approximate
06:28AM -8.3125 -52.3974 327° Northwest  Level FlightAware Approximate
06:29AM -8.2019 -52.4689 327° Northwest  Level FlightAware Approximate
06:30AM -8.0913 -52.5404 327° Northwest  Level FlightAware Approximate
06:31AM -7.9807 -52.6119 327° Northwest  Level FlightAware Approximate
06:32AM -7.8575 -52.6577 329° Northwest  Level Estimated
06:33AM -7.7453 -52.7266 329° Northwest  Level FlightAware Approximate
06:34AM -7.6330 -52.7954 329° Northwest  Level FlightAware Approximate
06:35AM -7.5208 -52.8642 329° Northwest  Level FlightAware Approximate
06:36AM -7.4086 -52.9329 329° Northwest  Level FlightAware Approximate
06:37AM -7.2963 -53.0017 329° Northwest  Level FlightAware Approximate
06:38AM -7.1841 -53.0703 329° Northwest  Level FlightAware Approximate
06:39AM -7.0718 -53.1390 329° Northwest  Level FlightAware Approximate
06:40AM -6.9595 -53.2076 329° Northwest  Level FlightAware Approximate
06:41AM -6.8472 -53.2762 329° Northwest  Level FlightAware Approximate
06:42AM -6.7349 -53.3447 329° Northwest  Level FlightAware Approximate
06:43AM -6.6226 -53.4132 329° Northwest  Level FlightAware Approximate
06:44AM -6.5103 -53.4817 329° Northwest  Level FlightAware Approximate
06:45AM -6.3980 -53.5502 329° Northwest  Level FlightAware Approximate
06:46AM -6.2856 -53.6186 329° Northwest  Level FlightAware Approximate
06:47AM -6.1733 -53.6870 329° Northwest  Level FlightAware Approximate
06:48AM -6.0609 -53.7553 329° Northwest  Level FlightAware Approximate
06:49AM -5.9486 -53.8237 329° Northwest  Level FlightAware Approximate
06:50AM -5.8362 -53.8920 329° Northwest  Level FlightAware Approximate
06:51AM -5.7238 -53.9603 329° Northwest  Level FlightAware Approximate
06:52AM -5.6114 -54.0285 329° Northwest  Level FlightAware Approximate
06:53AM -5.4990 -54.0967 329° Northwest  Level FlightAware Approximate
06:54AM -5.3866 -54.1649 329° Northwest  Level FlightAware Approximate
06:55AM -5.2742 -54.2331 329° Northwest  Level FlightAware Approximate
06:56AM -5.1618 -54.3013 329° Northwest  Level FlightAware Approximate
06:57AM -5.0493 -54.3694 329° Northwest  Level FlightAware Approximate
06:58AM -4.9369 -54.4375 329° Northwest  Level FlightAware Approximate
06:59AM -4.8245 -54.5056 329° Northwest  Level FlightAware Approximate
07:00AM -4.7120 -54.5736 329° Northwest  Level FlightAware Approximate
07:01AM -4.5996 -54.6417 329° Northwest  Level FlightAware Approximate
07:02AM -4.4871 -54.7097 329° Northwest  Level FlightAware Approximate
07:03AM -4.3747 -54.7777 329° Northwest  Level FlightAware Approximate
07:04AM -4.2622 -54.8457 329° Northwest  Level FlightAware Approximate
07:05AM -4.1497 -54.9136 329° Northwest  Level FlightAware Approximate
07:06AM -4.0372 -54.9815 329° Northwest  Level FlightAware Approximate
07:07AM -3.9247 -55.0495 329° Northwest  Level FlightAware Approximate
07:08AM -3.8122 -55.1174 329° Northwest  Level FlightAware Approximate
07:09AM -3.6997 -55.1852 329° Northwest  Level FlightAware Approximate
07:10AM -3.5872 -55.2531 329° Northwest  Level FlightAware Approximate
07:11AM -3.4747 -55.3210 329° Northwest  Level FlightAware Approximate
07:12AM -3.3622 -55.3888 329° Northwest  Level FlightAware Approximate
07:13AM -3.2381 -55.4318 321° Northwest  Level Estimated
07:14AM -3.1366 -55.5153 321° Northwest  Level FlightAware Approximate
07:15AM -3.0352 -55.5988 321° Northwest  Level FlightAware Approximate
07:16AM -2.9337 -55.6823 321° Northwest  Level FlightAware Approximate
07:17AM -2.8323 -55.7657 321° Northwest  Level FlightAware Approximate
07:18AM -2.7308 -55.8492 321° Northwest  Level FlightAware Approximate
07:19AM -2.6293 -55.9326 321° Northwest  Level FlightAware Approximate
07:20AM -2.5278 -56.0160 321° Northwest  Level FlightAware Approximate
07:21AM -2.4264 -56.0994 321° Northwest  Level FlightAware Approximate
07:22AM -2.3249 -56.1828 321° Northwest  Level FlightAware Approximate
07:23AM -2.2234 -56.2662 321° Northwest  Level FlightAware Approximate
07:24AM -2.1219 -56.3496 321° Northwest  Level FlightAware Approximate
07:25AM -2.0203 -56.4330 321° Northwest  Level FlightAware Approximate
07:26AM -1.9188 -56.5163 321° Northwest  Level FlightAware Approximate
07:27AM -1.8173 -56.5997 321° Northwest  Level FlightAware Approximate
07:28AM -1.7158 -56.6830 321° Northwest  Level FlightAware Approximate
07:29AM -1.6143 -56.7663 321° Northwest  Level FlightAware Approximate
07:30AM -1.5128 -56.8497 321° Northwest  Level FlightAware Approximate
07:31AM -1.4112 -56.9330 321° Northwest  Level FlightAware Approximate
07:32AM -1.3097 -57.0163 321° Northwest  Level FlightAware Approximate
07:33AM -1.2082 -57.0996 321° Northwest  Level FlightAware Approximate
07:34AM -1.1066 -57.1829 321° Northwest  Level FlightAware Approximate
07:35AM -1.0051 -57.2661 321° Northwest  Level FlightAware Approximate
07:36AM -0.9036 -57.3494 321° Northwest  Level FlightAware Approximate
07:37AM -0.8020 -57.4327 321° Northwest  Level FlightAware Approximate
07:38AM -0.7005 -57.5160 321° Northwest  Level FlightAware Approximate
07:39AM -0.5755 -57.5562 318° Northwest  Level Estimated
07:40AM -0.4784 -57.6447 318° Northwest  Level FlightAware Approximate
07:41AM -0.3814 -57.7332 318° Northwest  Level FlightAware Approximate
07:42AM -0.2844 -57.8217 318° Northwest  Level FlightAware Approximate
07:43AM -0.1874 -57.9102 318° Northwest  Level FlightAware Approximate
07:44AM -0.0904 -57.9987 318° Northwest  Level FlightAware Approximate
07:45AM 0.0067 -58.0872 318° Northwest  Level FlightAware Approximate
07:46AM 0.1037 -58.1756 318° Northwest  Level FlightAware Approximate
07:47AM 0.2007 -58.2641 318° Northwest  Level FlightAware Approximate
07:48AM 0.2978 -58.3526 318° Northwest  Level FlightAware Approximate
07:49AM 0.3948 -58.4411 318° Northwest  Level FlightAware Approximate
07:50AM 0.4918 -58.5296 318° Northwest  Level FlightAware Approximate
07:51AM 0.5888 -58.6181 318° Northwest  Level FlightAware Approximate
07:52AM 0.6858 -58.7066 318° Northwest  Level FlightAware Approximate
07:53AM 0.7829 -58.7951 318° Northwest  Level FlightAware Approximate
07:54AM 0.8799 -58.8836 318° Northwest  Level FlightAware Approximate
07:55AM 0.9769 -58.9721 318° Northwest  Level FlightAware Approximate
07:56AM 1.0739 -59.0606 318° Northwest  Level FlightAware Approximate
07:57AM 1.1709 -59.1492 318° Northwest  Level FlightAware Approximate
07:58AM 1.2679 -59.2377 318° Northwest  Level FlightAware Approximate
07:59AM 1.3649 -59.3262 318° Northwest  Level FlightAware Approximate
08:00AM 1.4619 -59.4148 318° Northwest  Level FlightAware Approximate
08:01AM 1.5589 -59.5033 318° Northwest  Level FlightAware Approximate
08:02AM 1.6559 -59.5919 318° Northwest  Level FlightAware Approximate
08:03AM 1.7529 -59.6804 318° Northwest  Level FlightAware Approximate
08:04AM 1.8499 -59.7690 318° Northwest  Level FlightAware Approximate
08:05AM 1.9469 -59.8576 318° Northwest  Level FlightAware Approximate
08:06AM 2.0438 -59.9462 318° Northwest  Level FlightAware Approximate
08:07AM 2.1408 -60.0348 318° Northwest  Level FlightAware Approximate
08:08AM 2.2378 -60.1234 318° Northwest  Level FlightAware Approximate
08:09AM 2.3347 -60.2121 318° Northwest  Level FlightAware Approximate
08:10AM 2.4317 -60.3007 318° Northwest  Level FlightAware Approximate
08:11AM 2.5287 -60.3894 318° Northwest  Level FlightAware Approximate
08:12AM 2.6256 -60.4780 318° Northwest  Level FlightAware Approximate
08:13AM 2.7520 -60.5138 355° North  Level Estimated
08:14AM 2.8824 -60.5286 354° North  Level FlightAware Approximate
08:15AM 3.0129 -60.5435 354° North  Level FlightAware Approximate
08:16AM 3.1434 -60.5583 354° North  Level FlightAware Approximate
08:17AM 3.2739 -60.5732 354° North  Level FlightAware Approximate
08:18AM 3.4044 -60.5880 354° North  Level FlightAware Approximate
08:19AM 3.5348 -60.6028 354° North  Level FlightAware Approximate
08:20AM 3.6653 -60.6177 354° North  Level FlightAware Approximate
08:21AM 3.7958 -60.6325 354° North  Level FlightAware Approximate
08:22AM 3.9263 -60.6474 354° North  Level FlightAware Approximate
08:23AM 4.0567 -60.6623 354° North  Level FlightAware Approximate
08:24AM 4.1872 -60.6771 354° North  Level FlightAware Approximate
08:25AM 4.3177 -60.6920 354° North  Level FlightAware Approximate
08:26AM 4.4482 -60.7069 354° North  Level FlightAware Approximate
08:27AM 4.5787 -60.7218 354° North  Level FlightAware Approximate
08:28AM 4.7091 -60.7366 354° North  Level FlightAware Approximate
08:29AM 4.8396 -60.7515 354° North  Level FlightAware Approximate
08:30AM 4.9701 -60.7664 354° North  Level FlightAware Approximate
08:31AM 5.1006 -60.7814 354° North  Level FlightAware Approximate
08:32AM 5.2310 -60.7963 354° North  Level FlightAware Approximate
08:33AM 5.3615 -60.8112 354° North  Level FlightAware Approximate
08:34AM 5.4920 -60.8261 354° North  Level FlightAware Approximate
08:35AM 5.6224 -60.8410 354° North  Level FlightAware Approximate
08:36AM 5.7529 -60.8560 354° North  Level FlightAware Approximate
08:37AM 5.8834 -60.8709 353° North  Level FlightAware Approximate
08:38AM 6.0139 -60.8859 353° North  Level FlightAware Approximate
08:39AM 6.1443 -60.9008 353° North  Level FlightAware Approximate
08:40AM 6.2748 -60.9158 353° North  Level FlightAware Approximate
08:41AM 6.4053 -60.9308 353° North  Level FlightAware Approximate
08:42AM 6.5357 -60.9458 353° North  Level FlightAware Approximate
08:43AM 6.6662 -60.9608 353° North  Level FlightAware Approximate
08:44AM 6.7967 -60.9758 353° North  Level FlightAware Approximate
08:45AM 6.9271 -60.9908 353° North  Level FlightAware Approximate
08:46AM 7.0576 -61.0058 353° North  Level FlightAware Approximate
08:47AM 7.1881 -61.0208 353° North  Level FlightAware Approximate
08:48AM 7.3186 -61.0358 353° North  Level FlightAware Approximate
08:49AM 7.4490 -61.0509 353° North  Level FlightAware Approximate
08:50AM 7.5795 -61.0659 353° North  Level FlightAware Approximate
08:51AM 7.7100 -61.0810 353° North  Level FlightAware Approximate
08:52AM 7.8404 -61.0961 353° North  Level FlightAware Approximate
08:53AM 7.9709 -61.1111 353° North  Level FlightAware Approximate
08:54AM 8.1014 -61.1262 353° North  Level FlightAware Approximate
08:55AM 8.2318 -61.1413 353° North  Level FlightAware Approximate
08:56AM 8.3623 -61.1564 353° North  Level FlightAware Approximate
08:57AM 8.4927 -61.1716 353° North  Level FlightAware Approximate
08:58AM 8.6232 -61.1867 353° North  Level FlightAware Approximate
08:59AM 8.7537 -61.2018 353° North  Level FlightAware Approximate
09:00AM 8.8841 -61.2170 353° North  Level FlightAware Approximate
09:01AM 9.0146 -61.2321 353° North  Level FlightAware Approximate
09:02AM 9.1450 -61.2473 353° North  Level FlightAware Approximate
09:03AM 9.2755 -61.2625 353° North  Level FlightAware Approximate
09:04AM 9.4060 -61.2777 353° North  Level FlightAware Approximate
09:05AM 9.5364 -61.2929 353° North  Level FlightAware Approximate
09:06AM 9.6669 -61.3081 353° North  Level FlightAware Approximate
09:07AM 9.7921 -61.3483 355° North  Level Estimated
09:08AM 9.9232 -61.3553 357° North  Level FlightAware Approximate
09:09AM 10.0543 -61.3622 357° North  Level FlightAware Approximate
09:10AM 10.1855 -61.3692 357° North  Level FlightAware Approximate
09:11AM 10.3106 -61.4099 330° Northwest  Level Estimated
09:12AM 10.4276 -61.4704 333° Northwest  Level FlightAware Approximate
09:13AM 10.5447 -61.5309 333° Northwest  Level FlightAware Approximate
09:14AM 10.6617 -61.5914 333° Northwest  Level FlightAware Approximate
09:15AM 10.7788 -61.6521 333° Northwest  Level FlightAware Approximate
09:16AM 10.8958 -61.7127 333° Northwest  Level FlightAware Approximate
09:17AM 11.0128 -61.7734 333° Northwest  Level FlightAware Approximate
09:18AM 11.1298 -61.8342 333° Northwest  Level FlightAware Approximate
09:19AM 11.2468 -61.8950 333° Northwest  Level FlightAware Approximate
09:20AM 11.3638 -61.9559 333° Northwest  Level FlightAware Approximate
09:21AM 11.4807 -62.0168 333° Northwest  Level FlightAware Approximate
09:22AM 11.5977 -62.0777 333° Northwest  Level FlightAware Approximate
09:23AM 11.7229 -62.1180 329° Northwest  Level Estimated
09:24AM 11.8353 -62.1874 329° Northwest  Level FlightAware Approximate
09:25AM 11.9585 -62.2270 343° North  Level Estimated
09:26AM 12.0817 -62.2666 343° North  Level Estimated
09:27AM 12.2049 -62.3063 343° North  Level Estimated
09:28AM 12.3281 -62.3460 343° North  Level Estimated
09:29AM 12.4512 -62.3857 343° North  Level Estimated
09:30AM 12.5744 -62.4255 343° North  Level Estimated
09:31AM 12.6976 -62.4653 342° North  Level Estimated
09:32AM 12.8207 -62.5052 342° North  Level Estimated
09:33AM 12.9439 -62.5451 342° North  Level Estimated
09:34AM 13.0670 -62.5850 342° North  Level Estimated
09:35AM 13.1901 -62.6250 342° North  Level Estimated
09:36AM 13.3133 -62.6650 342° North  Level Estimated
09:37AM 13.4364 -62.7050 342° North  Level Estimated
09:38AM 13.5595 -62.7451 342° North  Level Estimated
09:39AM 13.6826 -62.7852 342° North  Level Estimated
09:40AM 13.8057 -62.8254 342° North  Level Estimated
09:41AM 13.9288 -62.8656 342° North  Level Estimated
09:41AM 14.7167 -63.9667 342° North 470 541 32,000  Level San Juan Center
09:42AM 14.0519 -62.9059 342° North  Level Estimated
09:42AM 14.8333 -64.0500 325° Northwest 480 552 32,000  Level San Juan Center
09:43AM 14.1750 -62.9462 342° North  Level Estimated
09:43AM 14.9500 -64.1167 331° Northwest 480 552 32,000  Level San Juan Center
09:44AM 14.2981 -62.9865 342° North  Level Estimated
09:45AM 14.4211 -63.0269 342° North  Level Estimated
09:45AM 15.1667 -64.2500 329° Northwest 470 541 32,000  Level San Juan Center
09:46AM 14.5442 -63.0674 342° North  Level Estimated
09:46AM 15.2833 -64.3333 325° Northwest 470 541 32,000  Level San Juan Center
09:47AM 14.6673 -63.1078 342° North  Level Estimated
09:47AM 15.4000 -64.4000 331° Northwest 480 552 32,000  Level San Juan Center
09:48AM 15.5167 -64.4667 331° Northwest 470 541 32,000  Level San Juan Center
09:49AM 15.6333 -64.5333 331° Northwest 470 541 32,000  Level San Juan Center
09:50AM 15.7333 -64.6167 321° Northwest 470 541 32,000  Level San Juan Center
09:51AM 15.8500 -64.6833 331° Northwest 480 552 32,000  Level San Juan Center
09:52AM 15.9667 -64.7667 326° Northwest 470 541 32,000  Level San Juan Center
09:53AM 16.0833 -64.8500 326° Northwest 470 541 32,000  Level San Juan Center
09:54AM 16.2000 -64.9167 331° Northwest 470 541 32,000  Level San Juan Center
09:55AM 16.3000 -64.9833 327° Northwest 470 541 32,000  Level San Juan Center
09:56AM 16.4167 -65.0667 326° Northwest 470 541 32,000  Level San Juan Center
09:57AM 16.5167 -65.1500 321° Northwest 470 541 32,000  Level San Juan Center
09:58AM 16.6167 -65.2000 334° Northwest 470 541 32,000  Level San Juan Center
09:59AM 16.7333 -65.2833 326° Northwest 460 529 32,000  Level San Juan Center
10:00AM 16.8500 -65.3500 331° Northwest 470 541 32,000  Level San Juan Center
10:01AM 16.9500 -65.4333 321° Northwest 470 541 32,000  Level San Juan Center
10:02AM 17.0667 -65.5000 331° Northwest 470 541 32,000  Level San Juan Center
10:03AM 17.1833 -65.5667 331° Northwest 470 541 32,000  Level San Juan Center
10:04AM 17.3000 -65.6500 326° Northwest 470 541 32,000  Level San Juan Center
10:05AM 17.4000 -65.7167 328° Northwest 470 541 32,000  Level San Juan Center
10:06AM 17.5167 -65.7833 331° Northwest 470 541 32,000  Level San Juan Center
10:07AM 17.6333 -65.8667 326° Northwest 490 564 32,000  Level San Juan Center
10:08AM 17.7500 -65.9500 326° Northwest 480 552 32,000  Level San Juan Center
10:09AM 17.8500 -66.0167 328° Northwest 450 518 32,000  Level San Juan Center
10:10AM 17.9500 -66.0833 328° Northwest 470 541 32,000  Level San Juan Center
10:11AM 18.0667 -66.1667 326° Northwest 470 541 32,000  Level San Juan Center
10:12AM 18.1833 -66.2500 326° Northwest 480 552 32,000  Level San Juan Center
10:13AM 18.3000 -66.3333 326° Northwest 470 541 32,000  Level San Juan Center
10:14AM 18.4167 -66.4000 332° Northwest 470 541 32,000  Level San Juan Center
10:15AM 18.5333 -66.4833 326° Northwest 480 552 32,000  Level San Juan Center
10:16AM 18.6333 -66.5500 328° Northwest 480 552 32,000  Level San Juan Center
10:17AM 18.7500 -66.6333 326° Northwest 480 552 32,000  Level San Juan Center
10:18AM 18.8500 -66.7167 322° Northwest 480 552 32,000  Level San Juan Center
10:19AM 18.9667 -66.8000 326° Northwest 480 552 32,000  Level San Juan Center
10:20AM 19.0667 -66.8667 328° Northwest 480 552 32,000  Level San Juan Center
10:21AM 19.1833 -66.9500 326° Northwest 480 552 32,000  Level San Juan Center
10:22AM 19.3000 -67.0167 332° Northwest 480 552 32,000  Level San Juan Center
10:23AM 19.4167 -67.0833 332° Northwest 470 541 32,000  Level San Juan Center
10:24AM 19.5500 -67.1167 347° North 480 552 32,000  Level San Juan Center
10:25AM 19.6667 -67.2000 326° Northwest 490 564 32,000  Level San Juan Center
10:26AM 19.7667 -67.2833 322° Northwest 480 552 32,000  Level San Juan Center
10:27AM 19.8833 -67.3667 326° Northwest 480 552 32,000  Level San Juan Center
10:28AM 19.9833 -67.4500 322° Northwest 480 552 32,000  Level San Juan Center
10:29AM 20.0833 -67.5333 322° Northwest 480 552 32,000  Level San Juan Center
10:30AM 20.2000 -67.6167 326° Northwest 480 552 32,000 240 Level San Juan Center
10:31AM 20.3167 -67.7000 326° Northwest 490 564 32,500 960 Climbing San Juan Center
10:32AM 20.4167 -67.7833 322° Northwest 480 552 34,000 900 Climbing San Juan Center
10:33AM 20.4986 -67.8514 322° Northwest 479 551 34,000  Level Miami Center
10:34AM 20.6056 -67.9350 324° Northwest 499 574 34,000  Level Miami Center
10:35AM 20.7061 -68.0192 322° Northwest 499 574 34,000  Level Miami Center
10:36AM 20.8206 -68.0914 329° Northwest 488 562 34,000  Level Miami Center
10:37AM 20.9533 -68.1228 348° North 471 542 34,000  Level Miami Center
10:38AM 21.0883 -68.1517 349° North 477 549 34,000  Level Miami Center
10:39AM 21.2128 -68.1814 347° North 483 556 34,000  Level Miami Center
10:40AM 21.3456 -68.2131 347° North 488 562 34,000  Level Miami Center
10:41AM 21.4847 -68.2417 349° North 481 554 34,000  Level Miami Center
10:42AM 21.6178 -68.2733 348° North 481 554 34,000  Level Miami Center
10:43AM 21.7506 -68.3050 348° North 481 554 34,000  Level Miami Center
10:44AM 21.8836 -68.3386 347° North 479 551 34,000  Level Miami Center
10:45AM 22.0147 -68.3706 347° North 479 551 34,000  Level Miami Center
10:46AM 22.1475 -68.4000 348° North 479 551 34,000  Level Miami Center
10:47AM 22.2869 -68.4358 347° North 485 558 34,000  Level Miami Center
10:48AM 22.4244 -68.4694 347° North 497 572 34,000  Level Miami Center
10:49AM 22.5553 -68.4992 348° North 497 572 34,000  Level Miami Center
10:50AM 22.6883 -68.5333 347° North 497 572 34,000  Level Miami Center
10:51AM 22.8211 -68.5631 348° North 497 572 34,000  Level Miami Center
10:52AM 22.9564 -68.5969 347° North 492 566 34,000  Level Miami Center
10:53AM 23.0853 -68.6272 348° North 487 560 34,000  Level Miami Center
10:54AM 23.2292 -68.6675 346° North 500 575 34,000  Level Miami Center
10:55AM 23.3578 -68.6953 349° North 500 575 34,000  Level Miami Center
10:56AM 23.4931 -68.7253 349° North 489 563 34,000  Level Miami Center
10:57AM 23.6217 -68.7553 348° North 489 563 34,000  Level Miami Center
10:58AM 23.7592 -68.7919 346° North 494 568 34,000  Level Miami Center
10:59AM 23.8989 -68.8283 347° North 496 571 34,000  Level Miami Center
11:00AM 24.0297 -68.8583 348° North 496 571 34,000  Level Miami Center
11:01AM 24.1631 -68.8931 347° North 496 571 34,000  Level Miami Center
11:02AM 24.2958 -68.9233 348° North 496 571 34,000  Level Miami Center
11:03AM 24.4311 -68.9581 347° North 496 571 34,000  Level Miami Center
11:04AM 24.5644 -68.9928 347° North 496 571 34,000  Level Miami Center
11:05AM 24.6997 -69.0253 348° North 496 571 34,000  Level Miami Center
11:06AM 24.8328 -69.0578 348° North 489 563 34,000  Level Miami Center
11:07AM 24.9658 -69.0906 347° North 489 563 34,000  Level Miami Center
11:07AM 25.0000 -69.1000 349° North 487 560 34,000  Level New York Oceanic (ODAPS)
11:08AM 25.1333 -69.1167 349° North 491 565 34,000  Level New York Oceanic (ODAPS)
11:18AM 26.4167 -69.3833 349° North 476 548 34,000  Level New York Oceanic (ODAPS)
11:20AM 26.7167 -69.4500 349° North 476 548 34,000  Level New York Oceanic (ODAPS)
11:27AM 27.6667 -69.6500 349° North 467 537 34,000  Level New York Oceanic (ODAPS)
11:28AM 27.7667 -69.6833 349° North 477 549 34,000  Level New York Oceanic (ODAPS)
11:37AM 28.9167 -69.9333 349° North 473 544 34,000  Level New York Oceanic (ODAPS)
11:47AM 30.1500 -70.2000 347° North 463 533 34,000  Level New York Oceanic (ODAPS)
11:49AM 30.3667 -70.2500 337° Northwest 473 544 34,000  Level New York Oceanic (ODAPS)
11:56AM 31.4000 -70.4833 349° North 459 528 34,000  Level New York Oceanic (ODAPS)
11:57AM 31.4838 -70.5160 349° North 473 544 34,000  Level FlightAware Transoceanic
11:57AM 31.4500 -70.5000 349° North 478 550 34,000  Level New York Oceanic (ODAPS)
12:06PM 32.6500 -70.7833 349° North 474 545 34,000  Level New York Oceanic (ODAPS)
12:14PM 33.6833 -71.0333 348° North 473 544 34,000  Level New York Oceanic (ODAPS)
12:15PM 33.9000 -71.0833 348° North 478 550 34,000  Level New York Oceanic (ODAPS)
12:22PM 34.6667 -71.2833 348° North 476 548 34,000  Level New York Oceanic (ODAPS)
12:25PM 35.1333 -71.4000 348° North 468 539 34,000  Level New York Oceanic (ODAPS)
12:29PM 35.6333 -71.5333 348° North 466 536 34,000  Level New York Oceanic (ODAPS)
12:35PM 36.3500 -71.7167 348° North 464 534 34,000  Level New York Oceanic (ODAPS)
12:36PM 36.6003 -71.7778 348° North 481 554 34,000  Level New York Center
12:37PM 36.6592 -71.7978 348° North 466 536 34,000  Level FlightAware Transoceanic
12:37PM 36.7250 -71.8106 348° North 468 539 34,000  Level New York Center
12:38PM 36.7873 -71.8313 348° North 466 536 34,000  Level FlightAware Transoceanic
12:38PM 36.8561 -71.8464 348° North 468 539 34,000  Level New York Center
12:39PM 36.9155 -71.8650 348° North 466 536 34,000  Level FlightAware Transoceanic
12:39PM 36.9831 -71.8819 347° North 463 533 34,000  Level New York Center
12:40PM 37.0437 -71.8988 348° North 466 536 34,000  Level FlightAware Transoceanic
12:40PM 37.1036 -71.9228 345° North 463 533 34,000  Level New York Center
12:41PM 37.1643 -71.9306 348° North 464 534 34,000  Level FlightAware Transoceanic
12:41PM 37.2222 -71.9639 345° North 449 517 34,000  Level New York Center
12:42PM 37.3489 -72.0025 346° North 449 517 34,000  Level New York Center
12:43PM 37.4758 -72.0439 345° North 455 524 34,000  Level New York Center
12:44PM 37.6006 -72.0881 344° North 459 528 34,000  Level New York Center
12:45PM 37.7086 -72.1217 346° North 431 496 34,000  Level New York Center
12:46PM 37.8289 -72.1606 346° North 431 496 34,000  Level New York Center
12:47PM 37.9536 -72.1972 347° North 436 502 34,000  Level New York Center
12:48PM 38.0761 -72.2394 345° North 448 516 34,000  Level New York Center
12:54PM 38.7965 -72.4799 345° North 466 536 34,000 -240 Level FlightAware ADS-B (KWWD)
12:55PM 38.9215 -72.5221 345° North 467 537 32,600 -1,860 Descending FlightAware ADS-B (KWWD)
12:56PM 38.9851 -72.5434 345° North 467 537 31,300 -2,400 Descending FlightAware ADS-B (KWWD)
12:56PM 39.0538 -72.5740 341° North 447 514 30,100 -2,040 Descending FlightAware ADS-B (KWWD)
12:57PM 39.1128 -72.6260 326° Northwest 431 496 29,000 -2,340 Descending FlightAware ADS-B (KWWD)
12:57PM 39.1576 -72.6951 310° West 420 483 27,400 -2,520 Descending FlightAware ADS-B (KWWD)
12:58PM 39.2240 -72.7840 314° West 419 482 25,500 -2,160 Descending FlightAware ADS-B (KWWD)
12:59PM 39.2642 -72.8353 315° West 412 474 24,600 -2,280 Descending FlightAware ADS-B (KWWD)
12:59PM 39.3036 -72.8867 315° West 405 466 23,200 -2,820 Descending FlightAware ADS-B (KWWD)
01:00PM 39.3532 -72.9535 314° West 404 465 21,500 -2,880 Descending FlightAware ADS-B (KWWD)
01:00PM 39.3966 -73.0126 314° West 407 468 19,900 -2,520 Descending FlightAware ADS-B (KWWD)
01:01PM 39.4500 -73.0853 314° West 395 455 18,400 -2,880 Descending FlightAware ADS-B (KWWD)
01:02PM 39.4875 -73.1361 314° West 376 433 16,500 -3,120 Descending FlightAware ADS-B (KWWD)
01:03PM 39.5616 -73.2368 314° West 377 434 13,700 -1,680 Descending FlightAware ADS-B (KWWD)
01:04PM 39.6412 -73.3448 314° West 377 434 12,800 -840 Descending FlightAware ADS-B (KWWD)
01:04PM 39.6745 -73.3901 314° West 311 358 12,300 -900 Descending FlightAware ADS-B (KWWD)
01:06PM 39.7682 -73.5137 315° West 259 298 10,900 -720 Descending FlightAware ADS-B (KWWD)
01:07PM 39.8297 -73.5956 315° West 264 304 10,100 -840 Descending New York Center
01:08PM 39.8803 -73.6600 316° Northwest 251 289 9,000 -600 Descending New York Center
01:09PM 39.9289 -73.7186 317° Northwest 244 281 9,000  Level New York Center
01:10PM 40.0008 -73.7569 338° Northwest 244 281 9,000 -480 Level New York Center
01:11PM 40.0628 -73.7786 345° North 258 297 8,100 -1,020 Descending New York Center
01:12PM 40.1333 -73.7500 17° North 279 321 7,200 -1,200 Descending New York TRACON
01:13PM 40.2000 -73.7000 30° Northeast 278 320 6,000 -1,080 Descending New York TRACON
01:14PM 40.2667 -73.6500 30° Northeast 263 303 5,100 -1,080 Descending New York TRACON
01:15PM 40.3167 -73.6000 37° Northeast 262 302 3,900 -1,020 Descending New York TRACON
01:16PM 40.3897 -73.5369 33° Northeast 256 295 3,000 -420 Descending New York Center
01:17PM 40.4333 -73.4833 43° Northeast 229 264 3,100  Climbing New York TRACON
01:18PM 40.4833 -73.4667 14° North 230 265 3,000 -60 Descending New York TRACON
01:19PM 40.5333 -73.5000 333° Northwest 199 229 3,000  Level New York TRACON
01:20PM 40.5500 -73.5500 294° West 160 184 3,000  Level New York TRACON
01:21PM 40.5667 -73.6000 294° West 159 183 3,000 -420 Level New York TRACON
01:22PM 40.6000 -73.6500 311° West 152 175 2,200 -900 Descending New York TRACON
01:23PM 40.6167 -73.7000 294° West 145 167 1,300 -900 Descending New York TRACON
01:24PM 40.6333 -73.7500 294° West 143 165 500 -840 Descending New York TRACON
01:26PM 40.6333 -73.7667 347° North  Level FlightAware Approximate
01:33PM 40.6398 -73.7789 347° North  Level Estimated